Time;durP1;ratioP1;P1;durP2;ratioP2;P2;SDS_P1;SDS_P2;PMS_P1;PMS_P2;Temp;Humidity;BMP_temperature;BMP_pressure;BME280_temperature;BME280_humidity;BME280_pressure;Samples;Min_cycle;Max_cycle;Signal;HPM_P1;HPM_P2
2021/10/23 00:00:26;;;;;;;10.70;7.57;;;12.30;92.30;;;;;;5028435;28;20180;-76
2021/10/23 00:02:52;;;;;;;12.45;7.82;;;12.30;92.10;;;;;;5028049;28;20656;-76
2021/10/23 00:05:18;;;;;;;10.80;7.53;;;12.30;92.00;;;;;;5028072;28;20180;-76
2021/10/23 00:07:43;;;;;;;10.48;6.63;;;12.30;92.30;;;;;;5028369;28;20176;-76
2021/10/23 00:10:10;;;;;;;11.32;8.02;;;12.30;92.50;;;;;;5029418;28;20176;-76
2021/10/23 00:12:36;;;;;;;9.82;6.63;;;12.30;92.70;;;;;;5029075;28;20188;-76
2021/10/23 00:15:03;;;;;;;16.30;7.07;;;12.30;92.40;;;;;;5027055;28;20302;-76
2021/10/23 00:17:29;;;;;;;9.77;6.93;;;12.30;92.30;;;;;;5028978;28;20996;-76
2021/10/23 00:19:58;;;;;;;10.15;6.43;;;12.30;92.30;;;;;;5027875;28;20184;-76
2021/10/23 00:22:24;;;;;;;10.13;7.07;;;12.30;92.40;;;;;;5028616;28;20216;-76
2021/10/23 00:24:49;;;;;;;12.00;6.97;;;12.20;92.20;;;;;;5029173;28;20261;-76
2021/10/23 00:27:15;;;;;;;10.60;7.40;;;12.30;92.30;;;;;;5027461;28;20283;-76
2021/10/23 00:29:41;;;;;;;10.20;6.57;;;12.30;92.50;;;;;;5026311;28;20234;-76
2021/10/23 00:32:07;;;;;;;9.32;7.03;;;12.30;92.20;;;;;;5027748;28;20275;-76
2021/10/23 00:34:33;;;;;;;8.70;6.55;;;12.30;91.80;;;;;;5028270;28;20195;-76
2021/10/23 00:36:59;;;;;;;10.85;6.35;;;12.30;91.90;;;;;;5028689;28;20180;-76
2021/10/23 00:39:25;;;;;;;13.63;7.13;;;12.40;91.90;;;;;;5027847;28;20214;-76
2021/10/23 00:41:51;;;;;;;9.40;6.65;;;12.40;91.90;;;;;;5029068;28;20187;-76
2021/10/23 00:44:37;;;;;;;7.97;6.32;;;12.40;91.90;;;;;;5026822;28;20562;-76
2021/10/23 00:47:08;;;;;;;9.98;6.63;;;12.40;91.50;;;;;;5027145;28;20180;-76
2021/10/23 00:49:36;;;;;;;8.50;6.18;;;12.40;91.50;;;;;;5026043;28;20188;-75
2021/10/23 00:52:03;;;;;;;11.02;6.85;;;12.40;92.10;;;;;;5027359;28;20192;-76
2021/10/23 00:54:30;;;;;;;10.70;7.20;;;12.40;91.80;;;;;;5059212;28;20658;-76
2021/10/23 00:56:57;;;;;;;9.13;6.78;;;12.40;91.90;;;;;;5027026;28;20192;-76
2021/10/23 00:59:23;;;;;;;13.30;7.45;;;12.40;92.00;;;;;;5027666;28;20181;-76
2021/10/23 01:01:49;;;;;;;13.02;7.28;;;12.40;92.10;;;;;;5027855;28;20586;-76
2021/10/23 01:04:15;;;;;;;9.50;7.25;;;12.40;92.10;;;;;;5026737;28;20188;-77
2021/10/23 01:06:41;;;;;;;10.50;7.25;;;12.40;92.10;;;;;;5028799;28;20189;-76
2021/10/23 01:09:08;;;;;;;11.95;7.57;;;12.40;92.00;;;;;;5027253;28;20196;-77
2021/10/23 01:11:34;;;;;;;13.02;7.65;;;12.40;92.00;;;;;;5025466;28;20177;-77
2021/10/23 01:14:00;;;;;;;8.23;7.15;;;12.40;91.90;;;;;;5027541;28;20188;-76
2021/10/23 01:16:26;;;;;;;9.75;7.50;;;12.30;92.00;;;;;;5026964;28;20250;-76
2021/10/23 01:18:52;;;;;;;10.75;7.25;;;12.40;92.10;;;;;;5026632;28;20189;-76
2021/10/23 01:21:22;;;;;;;9.40;7.30;;;12.30;92.30;;;;;;5025563;28;20744;-76
2021/10/23 01:23:48;;;;;;;6.43;5.85;;;12.30;91.90;;;;;;5026378;28;20242;-76
2021/10/23 01:26:14;;;;;;;8.45;6.57;;;12.30;92.20;;;;;;5025972;28;20685;-76
2021/10/23 01:28:40;;;;;;;13.05;6.60;;;12.30;92.10;;;;;;5026249;28;20259;-76
2021/10/23 01:31:06;;;;;;;8.20;6.68;;;12.20;92.10;;;;;;5024074;28;20180;-76
2021/10/23 01:33:33;;;;;;;11.20;7.07;;;12.20;92.50;;;;;;5028298;28;20221;-76
2021/10/23 01:36:16;;;;;;;9.80;7.03;;;12.20;92.50;;;;;;5026538;28;20195;-76
2021/10/23 01:38:45;;;;;;;9.38;6.63;;;12.20;92.00;;;;;;5026344;28;20187;-76
2021/10/23 01:41:11;;;;;;;11.63;6.63;;;12.20;92.20;;;;;;5027661;28;20259;-77
2021/10/23 01:43:38;;;;;;;7.65;6.75;;;12.20;92.20;;;;;;5026298;28;20212;-77
2021/10/23 01:46:04;;;;;;;12.07;6.82;;;12.20;92.20;;;;;;5024728;28;20269;-76
2021/10/23 01:48:33;;;;;;;11.55;7.82;;;12.20;92.30;;;;;;5027312;28;20172;-76
2021/10/23 01:50:59;;;;;;;10.80;7.28;;;12.20;92.30;;;;;;5027658;28;20192;-77
2021/10/23 01:53:24;;;;;;;10.65;7.18;;;12.20;92.50;;;;;;5026399;28;20180;-77
2021/10/23 01:55:52;;;;;;;12.30;7.40;;;12.20;92.60;;;;;;5027781;28;20634;-77
2021/10/23 01:58:19;;;;;;;9.18;6.72;;;12.20;92.70;;;;;;5027024;28;20172;-77
2021/10/23 02:00:46;;;;;;;8.57;6.28;;;12.10;92.60;;;;;;5026577;28;20214;-77
2021/10/23 02:03:12;;;;;;;8.27;6.78;;;12.10;92.50;;;;;;5027843;28;20295;-77
2021/10/23 02:05:38;;;;;;;10.38;6.05;;;12.10;92.60;;;;;;5026194;28;20644;-77
2021/10/23 02:08:04;;;;;;;7.38;6.60;;;12.10;92.80;;;;;;5026052;28;20974;-77
2021/10/23 02:10:30;;;;;;;11.45;6.35;;;12.10;92.60;;;;;;5026682;28;20210;-77
2021/10/23 02:12:55;;;;;;;8.82;6.47;;;12.10;92.80;;;;;;5027046;28;20199;-77
2021/10/23 02:15:21;;;;;;;8.73;6.10;;;12.00;93.30;;;;;;5024399;28;20173;-77
2021/10/23 02:17:47;;;;;;;8.07;6.15;;;12.00;93.30;;;;;;5026335;28;20180;-77
2021/10/23 02:20:13;;;;;;;13.32;7.35;;;11.90;93.30;;;;;;5026897;28;20200;-77
2021/10/23 02:22:40;;;;;;;14.70;6.80;;;11.90;93.50;;;;;;5026736;28;20208;-77
2021/10/23 02:25:10;;;;;;;10.48;7.57;;;11.90;93.60;;;;;;5026149;28;20186;-77
2021/10/23 02:27:36;;;;;;;12.63;8.20;;;11.80;93.80;;;;;;5025406;28;20212;-77
2021/10/23 02:30:07;;;;;;;13.30;8.07;;;11.80;94.20;;;;;;5030186;28;20180;-77
2021/10/23 02:32:33;;;;;;;12.02;7.45;;;11.80;94.10;;;;;;5029552;28;20191;-76
2021/10/23 02:34:59;;;;;;;13.48;7.43;;;11.80;94.10;;;;;;5032599;28;20196;-77
2021/10/23 02:37:25;;;;;;;8.90;7.50;;;11.80;93.90;;;;;;5029439;28;20258;-77
2021/10/23 02:39:51;;;;;;;12.13;8.45;;;11.70;94.00;;;;;;5028471;28;20734;-77
2021/10/23 02:42:17;;;;;;;13.95;8.80;;;11.70;94.00;;;;;;5030290;28;20204;-76
2021/10/23 02:44:43;;;;;;;17.80;7.93;;;11.70;94.30;;;;;;5029743;28;20274;-76
2021/10/23 02:47:09;;;;;;;13.43;7.00;;;11.70;95.10;;;;;;5027233;28;20176;-76
2021/10/23 02:49:37;;;;;;;12.75;7.47;;;11.60;95.20;;;;;;5030144;28;20188;-76
2021/10/23 02:52:03;;;;;;;6.80;5.80;;;11.60;95.20;;;;;;5030907;28;20207;-76
2021/10/23 02:54:29;;;;;;;8.52;7.18;;;11.60;95.20;;;;;;5030316;28;20237;-76
2021/10/23 02:56:55;;;;;;;8.75;6.82;;;11.60;94.90;;;;;;5029472;28;20654;-76
2021/10/23 02:59:20;;;;;;;8.93;6.10;;;11.60;95.20;;;;;;5030290;28;20255;-76
2021/10/23 03:01:46;;;;;;;9.63;6.63;;;11.60;94.90;;;;;;5029344;28;20565;-76
2021/10/23 03:04:12;;;;;;;7.25;5.85;;;11.60;95.00;;;;;;5030910;28;20212;-76
2021/10/23 03:06:38;;;;;;;8.32;6.55;;;11.60;94.90;;;;;;5029161;28;20183;-76
2021/10/23 03:09:04;;;;;;;7.50;6.07;;;11.60;94.80;;;;;;5029484;28;20189;-78
2021/10/23 03:11:30;;;;;;;11.05;6.45;;;11.60;94.90;;;;;;5028774;28;20311;-76
2021/10/23 03:13:56;;;;;;;6.45;5.85;;;11.50;95.10;;;;;;5030353;28;20189;-76
2021/10/23 03:16:22;;;;;;;7.97;6.43;;;11.50;94.80;;;;;;5027148;28;20654;-77
2021/10/23 03:18:48;;;;;;;6.47;5.55;;;11.50;94.80;;;;;;5026342;28;20234;-76
2021/10/23 03:21:15;;;;;;;7.35;5.72;;;11.50;94.50;;;;;;5030314;28;20182;-76
2021/10/23 03:23:40;;;;;;;8.38;6.63;;;11.50;94.40;;;;;;5029530;28;20216;-77
2021/10/23 03:26:06;;;;;;;12.57;6.55;;;11.50;94.30;;;;;;5030212;28;20199;-77
2021/10/23 03:28:32;;;;;;;5.00;4.65;;;11.50;94.40;;;;;;5030070;28;20246;-77
2021/10/23 03:30:58;;;;;;;5.40;5.03;;;11.40;94.30;;;;;;5027429;28;20186;-77
2021/10/23 03:33:23;;;;;;;9.30;6.45;;;11.40;94.30;;;;;;5029215;28;20185;-77
2021/10/23 03:35:49;;;;;;;9.80;6.28;;;11.40;94.10;;;;;;5029464;28;20199;-77
2021/10/23 03:38:15;;;;;;;12.23;6.47;;;11.40;94.20;;;;;;5030963;28;20176;-76
2021/10/23 03:40:40;;;;;;;6.68;5.75;;;11.40;94.40;;;;;;5029052;28;20191;-77
2021/10/23 03:43:06;;;;;;;9.18;6.30;;;11.30;94.60;;;;;;5030254;28;20247;-77
2021/10/23 03:45:32;;;;;;;8.15;6.00;;;11.30;95.00;;;;;;5028066;28;20192;-76
2021/10/23 03:47:58;;;;;;;9.40;6.53;;;11.20;94.90;;;;;;5029060;28;20230;-77
2021/10/23 03:50:23;;;;;;;6.05;5.30;;;11.10;95.00;;;;;;5028254;28;20215;-77
2021/10/23 03:52:49;;;;;;;10.95;5.80;;;11.10;95.10;;;;;;5028889;28;20195;-76
2021/10/23 03:55:15;;;;;;;6.35;5.53;;;11.10;95.20;;;;;;5028277;28;20183;-77
2021/10/23 03:57:40;;;;;;;8.35;5.25;;;11.10;95.00;;;;;;5028409;28;20199;-76
2021/10/23 04:00:07;;;;;;;10.80;6.00;;;11.10;95.00;;;;;;5027889;28;20230;-77
2021/10/23 04:02:33;;;;;;;7.65;5.88;;;11.10;95.00;;;;;;5026992;28;20293;-77
2021/10/23 04:04:59;;;;;;;9.18;6.30;;;11.10;94.90;;;;;;5029722;28;20620;-76
2021/10/23 04:07:24;;;;;;;9.07;6.65;;;11.10;95.20;;;;;;5030362;28;20702;-76
2021/10/23 04:09:50;;;;;;;9.40;7.38;;;11.10;95.40;;;;;;5028686;28;20723;-76
2021/10/23 04:12:16;;;;;;;11.20;7.53;;;11.10;95.20;;;;;;5027926;28;20655;-76
2021/10/23 04:14:41;;;;;;;12.65;6.80;;;11.20;95.20;;;;;;5028809;28;20607;-76
2021/10/23 04:17:07;;;;;;;12.45;8.13;;;11.20;95.20;;;;;;5029572;28;20212;-75
2021/10/23 04:19:33;;;;;;;10.88;7.13;;;11.20;95.20;;;;;;5029168;28;20199;-76
2021/10/23 04:21:58;;;;;;;12.63;7.47;;;11.20;95.10;;;;;;5027518;28;20234;-76
2021/10/23 04:24:24;;;;;;;12.07;7.50;;;11.20;95.20;;;;;;5029547;28;20203;-76
2021/10/23 04:26:52;;;;;;;13.45;8.27;;;11.20;95.20;;;;;;5028196;28;20717;-76
2021/10/23 04:29:21;;;;;;;9.48;7.53;;;11.20;95.20;;;;;;5028034;28;20173;-77
2021/10/23 04:31:48;;;;;;;11.35;7.53;;;11.20;95.10;;;;;;5026923;28;20177;-77
2021/10/23 04:34:14;;;;;;;12.15;8.30;;;11.30;95.00;;;;;;5026052;28;20196;-76
2021/10/23 04:36:41;;;;;;;15.68;7.57;;;11.20;95.00;;;;;;5028576;28;20644;-76
2021/10/23 04:39:07;;;;;;;14.20;8.70;;;11.30;95.10;;;;;;5028663;28;20179;-76
2021/10/23 04:41:32;;;;;;;12.88;7.82;;;11.30;95.00;;;;;;5027430;28;20618;-76
2021/10/23 04:43:58;;;;;;;11.02;8.20;;;11.30;95.00;;;;;;5026173;28;20216;-76
2021/10/23 04:46:24;;;;;;;13.02;8.15;;;11.30;95.00;;;;;;5026173;28;20180;-76
2021/10/23 04:48:49;;;;;;;13.02;8.65;;;11.30;95.10;;;;;;5026983;28;20590;-77
2021/10/23 04:51:15;;;;;;;15.38;8.70;;;11.30;95.00;;;;;;5028820;28;20862;-77
2021/10/23 04:53:41;;;;;;;17.55;8.48;;;11.30;94.90;;;;;;5027989;28;20195;-76
2021/10/23 04:56:06;;;;;;;14.38;8.85;;;11.30;95.00;;;;;;5026876;28;20184;-77
2021/10/23 04:58:32;;;;;;;15.73;8.25;;;11.30;95.30;;;;;;5027082;28;20176;-76
2021/10/23 05:00:59;;;;;;;12.63;8.93;;;11.30;95.20;;;;;;5028434;28;20191;-77
2021/10/23 05:03:26;;;;;;;15.40;8.65;;;11.30;95.50;;;;;;5026727;28;20623;-77
2021/10/23 05:05:52;;;;;;;12.68;8.82;;;11.20;95.40;;;;;;5027329;28;20172;-77
2021/10/23 05:08:18;;;;;;;10.00;7.85;;;11.20;95.60;;;;;;5026911;28;20180;-77
2021/10/23 05:10:43;;;;;;;11.90;7.57;;;11.20;95.70;;;;;;5027600;28;20185;-77
2021/10/23 05:13:10;;;;;;;13.00;7.72;;;11.20;95.60;;;;;;5026863;28;20184;-77
2021/10/23 05:15:35;;;;;;;12.20;8.20;;;11.20;95.40;;;;;;5027859;28;20792;-77
2021/10/23 05:18:01;;;;;;;8.75;6.80;;;11.20;95.50;;;;;;5027049;28;20184;-77
2021/10/23 05:20:27;;;;;;;9.73;7.60;;;11.20;95.60;;;;;;5028286;28;20177;-77
2021/10/23 05:22:53;;;;;;;13.95;7.65;;;11.20;95.70;;;;;;5027675;28;20736;-77
2021/10/23 05:25:19;;;;;;;11.52;7.13;;;11.20;95.80;;;;;;5026534;28;20208;-77
2021/10/23 05:27:45;;;;;;;10.73;7.40;;;11.20;95.90;;;;;;5025320;28;20176;-77
2021/10/23 05:30:11;;;;;;;10.38;7.28;;;11.30;95.80;;;;;;5026141;28;20247;-76
2021/10/23 05:32:37;;;;;;;9.00;6.05;;;11.30;95.80;;;;;;5027740;28;20258;-76
2021/10/23 05:35:03;;;;;;;8.15;6.35;;;11.40;95.80;;;;;;5026780;28;20192;-75
2021/10/23 05:37:29;;;;;;;12.10;7.47;;;11.40;95.50;;;;;;5025606;28;20180;-76
2021/10/23 05:39:55;;;;;;;10.68;5.93;;;11.40;95.50;;;;;;5026266;28;20180;-76
2021/10/23 05:42:20;;;;;;;9.18;7.10;;;11.40;95.70;;;;;;5027759;28;20208;-76
2021/10/23 05:44:46;;;;;;;7.60;6.45;;;11.40;95.50;;;;;;5025867;28;20618;-76
2021/10/23 05:47:12;;;;;;;10.20;6.63;;;11.50;95.80;;;;;;5025608;28;20709;-76
2021/10/23 05:49:38;;;;;;;8.48;6.90;;;11.50;95.60;;;;;;5026912;28;20177;-76
2021/10/23 05:52:03;;;;;;;9.82;7.25;;;11.60;95.50;;;;;;5025338;28;20196;-76
2021/10/23 05:54:29;;;;;;;8.68;7.28;;;11.60;95.40;;;;;;5025766;28;20176;-76
2021/10/23 05:56:55;;;;;;;9.52;6.43;;;11.70;95.30;;;;;;5025526;28;20188;-76
2021/10/23 05:59:22;;;;;;;8.93;7.22;;;11.80;95.10;;;;;;5026833;28;20203;-76
2021/10/23 06:01:56;;;;;;;15.32;7.90;;;11.80;95.00;;;;;;5025813;28;20180;-76
2021/10/23 06:04:21;;;;;;;12.38;7.25;;;11.90;95.00;;;;;;5026359;28;20239;-76
2021/10/23 06:06:47;;;;;;;11.55;7.47;;;12.00;94.80;;;;;;5025058;28;20218;-76
2021/10/23 06:09:13;;;;;;;12.60;7.53;;;12.10;94.70;;;;;;5027813;28;20736;-76
2021/10/23 06:11:38;;;;;;;11.50;7.28;;;12.10;94.70;;;;;;5026419;28;21288;-76
2021/10/23 06:14:04;;;;;;;7.72;6.93;;;12.20;94.60;;;;;;5025694;28;20556;-76
2021/10/23 06:16:30;;;;;;;15.13;7.55;;;12.40;94.50;;;;;;5025739;28;20276;-77
2021/10/23 06:18:56;;;;;;;12.65;7.82;;;12.50;94.40;;;;;;5026026;28;20611;-76
2021/10/23 06:21:21;;;;;;;12.25;8.15;;;12.60;94.30;;;;;;5024201;28;20187;-76
2021/10/23 06:23:47;;;;;;;10.98;7.60;;;12.80;94.10;;;;;;5028832;28;20216;-77
2021/10/23 06:26:13;;;;;;;11.70;8.13;;;12.90;94.00;;;;;;5029343;28;20288;-77
2021/10/23 06:28:39;;;;;;;12.07;8.30;;;13.00;93.70;;;;;;5027947;28;20263;-77
2021/10/23 06:31:06;;;;;;;19.08;8.82;;;13.20;93.30;;;;;;5026217;28;20194;-77
2021/10/23 06:33:35;;;;;;;12.10;7.90;;;13.20;92.80;;;;;;5028772;28;20184;-79
2021/10/23 06:36:00;;;;;;;12.93;8.68;;;13.40;92.30;;;;;;5025313;28;20181;-77
2021/10/23 06:38:26;;;;;;;10.18;8.45;;;13.40;92.20;;;;;;5026857;28;20241;-76
2021/10/23 06:40:52;;;;;;;14.05;8.75;;;13.50;91.90;;;;;;5022950;28;20183;-76
2021/10/23 06:43:18;;;;;;;11.35;8.95;;;13.50;91.60;;;;;;5023790;28;20218;-76
2021/10/23 06:45:44;;;;;;;11.43;8.45;;;13.50;91.30;;;;;;5023103;28;20188;-76
2021/10/23 06:48:11;;;;;;;13.60;8.50;;;13.50;91.30;;;;;;5025547;28;20184;-76
2021/10/23 06:50:37;;;;;;;12.95;9.23;;;13.50;91.40;;;;;;5025679;28;20180;-76
2021/10/23 06:53:03;;;;;;;12.02;8.80;;;13.50;91.50;;;;;;5026144;28;20199;-75
2021/10/23 06:55:28;;;;;;;12.43;8.68;;;13.60;91.40;;;;;;5024429;28;20173;-76
2021/10/23 06:57:54;;;;;;;13.35;8.77;;;13.70;91.30;;;;;;5024269;28;20192;-76
2021/10/23 07:00:20;;;;;;;17.83;9.10;;;13.80;91.50;;;;;;5025430;28;20642;-76
2021/10/23 07:02:46;;;;;;;15.77;8.63;;;14.00;91.40;;;;;;5025301;28;20213;-76
2021/10/23 07:05:17;;;;;;;12.32;8.57;;;14.10;91.40;;;;;;5025163;28;20184;-76
2021/10/23 07:07:43;;;;;;;15.55;9.95;;;14.30;91.20;;;;;;5023834;28;20180;-77
2021/10/23 07:10:10;;;;;;;11.75;9.15;;;14.70;91.70;;;;;;5026040;28;20658;-78
2021/10/23 07:12:37;;;;;;;14.35;8.40;;;15.00;90.40;;;;;;5024022;28;20180;-79
2021/10/23 07:15:04;;;;;;;12.32;8.50;;;15.20;88.50;;;;;;5026001;28;20183;-77
2021/10/23 07:17:29;;;;;;;11.07;8.07;;;15.30;88.10;;;;;;5030141;28;20184;-78
2021/10/23 07:19:55;;;;;;;14.00;7.97;;;15.30;86.60;;;;;;5030446;28;20642;-78
2021/10/23 07:22:22;;;;;;;10.32;7.75;;;15.40;86.80;;;;;;5028505;28;20195;-78
2021/10/23 07:24:48;;;;;;;14.48;9.23;;;15.50;86.60;;;;;;5028070;28;20659;-77
2021/10/23 07:27:13;;;;;;;15.25;9.10;;;15.50;86.80;;;;;;5029300;28;20208;-77
2021/10/23 07:29:39;;;;;;;13.95;9.68;;;15.60;86.30;;;;;;5029287;28;20184;-78
2021/10/23 07:32:05;;;;;;;21.17;10.15;;;15.70;86.30;;;;;;5030001;28;20177;-78
2021/10/23 07:34:31;;;;;;;20.65;10.35;;;15.80;86.10;;;;;;5028732;28;20211;-78
2021/10/23 07:36:56;;;;;;;16.27;10.88;;;16.00;85.50;;;;;;5031823;28;20656;-78
2021/10/23 07:39:22;;;;;;;15.80;10.48;;;16.10;84.40;;;;;;5028710;28;20223;-76
2021/10/23 07:41:49;;;;;;;16.70;9.75;;;16.20;84.50;;;;;;5029789;28;20688;-77
2021/10/23 07:44:15;;;;;;;18.30;11.90;;;16.30;84.10;;;;;;5028938;28;20215;-76
2021/10/23 07:46:40;;;;;;;22.50;12.77;;;16.40;83.80;;;;;;5028944;28;20667;-78
2021/10/23 07:49:07;;;;;;;20.90;13.98;;;16.50;83.70;;;;;;5028832;28;20177;-76
2021/10/23 07:51:39;;;;;;;22.42;13.93;;;16.60;83.60;;;;;;5029431;28;20176;-76
2021/10/23 07:54:09;;;;;;;24.48;14.90;;;16.70;82.90;;;;;;5032126;28;20275;-77
2021/10/23 07:56:42;;;;;;;25.10;16.15;;;16.90;82.80;;;;;;5028282;28;20180;-77
2021/10/23 07:59:08;;;;;;;30.02;18.00;;;17.00;82.20;;;;;;5029680;28;20181;-74
2021/10/23 08:01:34;;;;;;;32.08;18.55;;;17.20;82.00;;;;;;5028676;28;20184;-77
2021/10/23 08:04:00;;;;;;;29.73;16.92;;;17.30;81.30;;;;;;5028741;28;20258;-77
2021/10/23 08:06:27;;;;;;;34.88;18.50;;;17.50;81.00;;;;;;5029223;28;20181;-78
2021/10/23 08:08:52;;;;;;;27.77;17.20;;;17.70;80.00;;;;;;5029002;28;20630;-76
2021/10/23 08:11:18;;;;;;;25.48;17.15;;;17.80;79.80;;;;;;5029643;28;20202;-75
2021/10/23 08:13:44;;;;;;;27.55;15.88;;;18.10;79.30;;;;;;5030086;28;20258;-75
2021/10/23 08:16:10;;;;;;;28.92;15.45;;;18.30;79.20;;;;;;5028096;28;20200;-71
2021/10/23 08:18:35;;;;;;;27.13;15.50;;;18.80;78.80;;;;;;5028595;28;20183;-75
2021/10/23 08:21:01;;;;;;;22.05;13.60;;;19.50;80.80;;;;;;5026442;28;20185;-73
2021/10/23 08:23:28;;;;;;;30.05;16.08;;;20.20;79.00;;;;;;5027344;28;20253;-78
2021/10/23 08:25:54;;;;;;;28.15;15.07;;;20.70;75.10;;;;;;5026032;28;20285;-77
2021/10/23 08:28:23;;;;;;;22.90;16.05;;;20.90;72.80;;;;;;5030368;28;20179;-78
2021/10/23 08:30:50;;;;;;;26.60;16.08;;;20.90;71.60;;;;;;5026387;28;20180;-74
2021/10/23 08:33:17;;;;;;;21.15;13.90;;;20.90;72.30;;;;;;5028353;28;20176;-75
2021/10/23 08:35:42;;;;;;;18.58;13.40;;;20.90;72.10;;;;;;5027107;28;20177;-75
2021/10/23 08:38:08;;;;;;;22.25;14.32;;;20.80;71.40;;;;;;5027332;28;20378;-79
2021/10/23 08:40:34;;;;;;;17.60;12.70;;;20.70;71.60;;;;;;5027299;28;20236;-78
2021/10/23 08:43:02;;;;;;;20.90;11.50;;;20.60;72.00;;;;;;5029472;28;20208;-78
2021/10/23 08:45:28;;;;;;;21.42;11.60;;;20.60;71.40;;;;;;5028615;28;20180;-77
2021/10/23 08:47:55;;;;;;;15.00;11.13;;;20.60;71.90;;;;;;5027821;28;20199;-80
2021/10/23 08:50:23;;;;;;;16.70;10.95;;;20.60;71.80;;;;;;5026122;28;20176;-80
2021/10/23 08:52:53;;;;;;;15.23;10.75;;;20.50;71.70;;;;;;5028597;28;20183;-80
2021/10/23 08:55:19;;;;;;;15.45;11.13;;;20.50;72.10;;;;;;5027782;28;20180;-80
2021/10/23 08:57:46;;;;;;;16.08;11.75;;;20.50;72.50;;;;;;5027505;28;20173;-80
2021/10/23 09:00:12;;;;;;;14.88;12.18;;;20.50;71.80;;;;;;5027259;28;20182;-78
2021/10/23 09:02:38;;;;;;;18.02;12.00;;;20.30;71.80;;;;;;5027139;28;20287;-78
2021/10/23 09:05:04;;;;;;;18.63;12.43;;;20.20;72.20;;;;;;5028678;28;20211;-80
2021/10/23 09:07:32;;;;;;;18.90;10.68;;;20.10;72.60;;;;;;5027096;28;20180;-78
2021/10/23 09:10:06;;;;;;;16.55;11.77;;;20.10;73.30;;;;;;5027005;28;20198;-77
2021/10/23 09:12:35;;;;;;;21.10;11.93;;;20.20;73.30;;;;;;5027022;28;20184;-78
2021/10/23 09:15:05;;;;;;;19.48;11.50;;;20.60;73.30;;;;;;5027230;28;20602;-79
2021/10/23 09:17:33;;;;;;;23.52;11.48;;;21.10;73.60;;;;;;5027448;28;20188;-78
2021/10/23 09:20:13;;;;;;;16.85;9.73;;;21.90;73.20;;;;;;5026078;28;20211;-79
2021/10/23 09:22:50;;;;;;;13.32;9.13;;;22.80;70.60;;;;;;5027622;28;20258;-79
2021/10/23 09:25:28;;;;;;;10.48;8.10;;;23.30;68.40;;;;;;5028004;28;20666;-79
2021/10/23 09:28:01;;;;;;;12.20;8.27;;;23.50;67.70;;;;;;5027114;28;20184;-78
2021/10/23 09:30:49;;;;;;;14.07;8.23;;;23.50;67.00;;;;;;5025761;28;20172;-78
2021/10/23 09:33:23;;;;;;;7.88;7.15;;;23.20;66.70;;;;;;5026535;28;20571;-78
2021/10/23 09:35:52;;;;;;;11.80;7.97;;;23.00;67.70;;;;;;5026558;28;20212;-78
2021/10/23 09:38:20;;;;;;;16.05;7.70;;;22.70;67.60;;;;;;5026539;28;20195;-79
2021/10/23 09:40:47;;;;;;;7.18;6.47;;;22.50;68.10;;;;;;5025085;28;20176;-78
2021/10/23 09:43:28;;;;;;;10.23;7.03;;;22.30;68.30;;;;;;5027535;28;20216;-79
2021/10/23 09:45:57;;;;;;;9.18;6.82;;;22.10;68.70;;;;;;5026728;28;20188;-79
2021/10/23 09:48:39;;;;;;;6.78;6.00;;;21.90;69.00;;;;;;5027456;28;20176;-78
2021/10/23 09:51:20;;;;;;;6.68;5.97;;;21.80;69.70;;;;;;5026292;28;20192;-78
2021/10/23 09:54:07;;;;;;;6.13;5.53;;;21.80;69.80;;;;;;5025231;28;20192;-79
2021/10/23 09:56:35;;;;;;;6.65;5.38;;;21.80;69.70;;;;;;5025131;28;20176;-79
2021/10/23 09:59:08;;;;;;;7.32;5.32;;;21.80;69.90;;;;;;5026570;28;20184;-79
2021/10/23 10:01:42;;;;;;;4.47;4.18;;;21.80;69.40;;;;;;5025732;28;20262;-80
2021/10/23 10:04:10;;;;;;;5.72;4.63;;;21.80;69.40;;;;;;5027167;28;20215;-80
2021/10/23 10:06:43;;;;;;;8.38;4.55;;;21.70;69.40;;;;;;5026585;28;20180;-79
2021/10/23 10:09:10;;;;;;;7.00;4.40;;;21.60;69.70;;;;;;5026881;28;20596;-80
2021/10/23 10:11:37;;;;;;;4.10;3.90;;;21.50;69.50;;;;;;5027060;28;20168;-80
2021/10/23 10:14:11;;;;;;;9.20;4.53;;;21.30;69.40;;;;;;5025546;28;20227;-79
2021/10/23 10:16:42;;;;;;;4.65;4.05;;;21.10;70.00;;;;;;5026445;28;20215;-80
2021/10/23 10:19:08;;;;;;;6.63;4.35;;;20.90;70.60;;;;;;5027448;28;20242;-79
2021/10/23 10:21:35;;;;;;;4.80;4.40;;;20.80;70.90;;;;;;5028622;28;20184;-80
2021/10/23 10:24:14;;;;;;;4.88;4.43;;;20.50;71.30;;;;;;5024917;28;21074;-80
2021/10/23 10:26:40;;;;;;;4.53;4.10;;;20.30;72.10;;;;;;5025936;28;20187;-79
2021/10/23 10:29:11;;;;;;;6.35;4.40;;;20.20;72.60;;;;;;5024665;28;20188;-79
2021/10/23 10:42:57;;;;;;;4.43;4.03;;;19.10;75.20;;;;;;4964520;28;20214;-79
2021/10/23 10:45:23;;;;;;;4.00;3.70;;;18.90;75.80;;;;;;4962980;28;20190;-79
2021/10/23 10:48:14;;;;;;;6.15;4.45;;;18.70;76.10;;;;;;4963568;28;20194;-78
2021/10/23 10:50:53;;;;;;;4.93;4.57;;;18.60;76.30;;;;;;4950243;28;20187;-79
2021/10/23 10:53:25;;;;;;;5.20;4.43;;;18.50;76.50;;;;;;4968281;28;20292;-79
2021/10/23 10:55:55;;;;;;;4.75;4.20;;;18.40;76.80;;;;;;4966554;28;20301;-79
2021/10/23 10:58:50;;;;;;;6.22;4.28;;;18.40;76.70;;;;;;4967508;28;20198;-79
2021/10/23 11:01:27;;;;;;;5.30;4.22;;;18.40;77.50;;;;;;4908789;29;20687;-79
2021/10/23 11:04:05;;;;;;;5.43;4.80;;;18.40;77.70;;;;;;4906476;29;20224;-78
2021/10/23 11:06:32;;;;;;;6.03;5.47;;;18.40;77.70;;;;;;4910063;29;20200;-78
2021/10/23 11:09:09;;;;;;;4.70;4.30;;;18.30;78.70;;;;;;4907823;29;20987;-79
2021/10/23 11:11:44;;;;;;;5.60;5.10;;;18.10;79.40;;;;;;4908496;29;20720;-79
2021/10/23 11:14:22;;;;;;;6.05;4.70;;;18.00;79.90;;;;;;4946092;29;20194;-79
2021/10/23 11:16:53;;;;;;;5.00;4.60;;;17.90;80.60;;;;;;4947778;28;20183;-79
2021/10/23 11:19:43;;;;;;;5.07;4.60;;;17.80;81.20;;;;;;4948569;29;20187;-80
2021/10/23 11:22:13;;;;;;;5.95;4.80;;;17.70;81.60;;;;;;4948766;28;20190;-79
2021/10/23 11:24:41;;;;;;;4.90;4.57;;;17.70;81.50;;;;;;4948086;28;20599;-79
2021/10/23 11:27:06;;;;;;;5.05;4.20;;;17.70;81.10;;;;;;4948865;28;20187;-78
2021/10/23 11:29:33;;;;;;;5.20;4.57;;;17.70;81.70;;;;;;4948075;29;20175;-80
2021/10/23 11:31:59;;;;;;;5.65;4.32;;;17.70;81.70;;;;;;4932133;29;20848;-76
2021/10/23 11:34:29;;;;;;;5.28;4.75;;;17.80;81.50;;;;;;4948388;28;20709;-76
2021/10/23 11:37:13;;;;;;;5.13;4.63;;;17.90;81.70;;;;;;4948305;28;20793;-77
2021/10/23 11:39:41;;;;;;;5.20;4.70;;;17.90;82.20;;;;;;5030805;28;20180;-77
2021/10/23 11:42:23;;;;;;;6.35;5.20;;;17.90;81.70;;;;;;5030391;28;20184;-77
2021/10/23 11:44:53;;;;;;;5.50;4.97;;;17.90;81.50;;;;;;5027870;28;20242;-78
2021/10/23 11:47:25;;;;;;;5.97;4.80;;;17.90;82.50;;;;;;5030402;28;20196;-77
2021/10/23 11:49:51;;;;;;;5.20;4.68;;;17.90;81.70;;;;;;5029364;28;20682;-77
2021/10/23 11:52:24;;;;;;;5.72;4.40;;;17.90;82.00;;;;;;5027473;28;20374;-77
2021/10/23 11:54:50;;;;;;;4.40;4.13;;;18.10;81.80;;;;;;5027379;28;20189;-77
2021/10/23 11:57:42;;;;;;;6.78;5.03;;;18.30;81.90;;;;;;5026937;28;20241;-75
2021/10/23 12:00:28;;;;;;;5.88;5.00;;;18.60;81.90;;;;;;5027991;28;20192;-75
2021/10/23 12:03:03;;;;;;;10.18;5.15;;;18.80;80.50;;;;;;5027718;28;20584;-76
2021/10/23 12:05:44;;;;;;;6.25;4.82;;;18.80;79.90;;;;;;5029231;28;20168;-74
2021/10/23 12:08:22;;;;;;;5.53;5.13;;;18.90;79.90;;;;;;5028133;28;20658;-74
2021/10/23 12:11:00;;;;;;;5.85;4.97;;;18.90;80.00;;;;;;5027551;28;20242;-74
2021/10/23 12:13:28;;;;;;;5.32;4.18;;;18.80;79.90;;;;;;5027161;28;20306;-74
2021/10/23 12:16:05;;;;;;;7.68;4.90;;;18.80;79.80;;;;;;5027678;28;20604;-74
2021/10/23 12:18:35;;;;;;;5.20;4.88;;;18.80;79.90;;;;;;5024952;28;20187;-75
2021/10/23 12:21:17;;;;;;;4.40;4.10;;;18.80;79.90;;;;;;5028704;28;20249;-75
2021/10/23 12:23:46;;;;;;;5.38;4.20;;;18.80;80.20;;;;;;5028159;28;20204;-75
2021/10/23 12:26:12;;;;;;;5.25;4.20;;;18.70;79.70;;;;;;5027468;28;20177;-75
2021/10/23 12:28:59;;;;;;;5.28;4.80;;;18.60;79.80;;;;;;5028190;28;20211;-75
2021/10/23 12:31:26;;;;;;;4.88;4.07;;;18.60;79.70;;;;;;5029673;28;20190;-75
2021/10/23 12:34:05;;;;;;;4.47;4.28;;;18.50;79.60;;;;;;5027753;28;20185;-75
2021/10/23 12:36:34;;;;;;;4.95;3.95;;;18.40;80.10;;;;;;5027271;28;20176;-75
2021/10/23 12:39:23;;;;;;;4.40;4.00;;;18.30;80.60;;;;;;5026211;28;20647;-75
2021/10/23 12:41:50;;;;;;;4.20;3.92;;;18.10;81.20;;;;;;5027493;28;20678;-76
2021/10/23 12:44:23;;;;;;;5.00;4.05;;;18.00;81.10;;;;;;5027150;28;20301;-77
2021/10/23 12:46:50;;;;;;;4.22;3.83;;;17.90;81.20;;;;;;5024538;28;20322;-76
2021/10/23 12:49:15;;;;;;;4.30;4.00;;;17.90;81.60;;;;;;5027191;28;20191;-75
2021/10/23 12:51:41;;;;;;;5.68;4.43;;;17.90;81.50;;;;;;5026718;28;20666;-75
2021/10/23 12:54:07;;;;;;;6.20;4.40;;;17.90;82.00;;;;;;5027833;28;20192;-76
2021/10/23 12:56:33;;;;;;;4.43;4.00;;;17.90;82.10;;;;;;5026776;28;20180;-75